Time;durP1;ratioP1;P1;durP2;ratioP2;P2;SDS_P1;SDS_P2;PMS_P1;PMS_P2;Temp;Humidity;BMP_temperature;BMP_pressure;BME280_temperature;BME280_humidity;BME280_pressure;Samples;Min_cycle;Max_cycle;Signal;HPM_P1;HPM_P2
2023/06/10 00:00:47;;;;;;;11.07;5.60;;;15.20;86.60;;;;;;5033810;28;19951;-45
2023/06/10 00:03:14;;;;;;;12.75;4.47;;;15.10;86.70;;;;;;5030746;28;20025;-46
2023/06/10 00:05:41;;;;;;;12.20;4.55;;;15.10;86.80;;;;;;5028516;28;20018;-50
2023/06/10 00:08:08;;;;;;;11.52;4.47;;;15.10;87.10;;;;;;5024672;28;20025;-45
2023/06/10 00:10:36;;;;;;;10.88;5.03;;;15.10;87.10;;;;;;5030201;28;20046;-50
2023/06/10 00:13:04;;;;;;;11.45;5.32;;;15.00;87.40;;;;;;5031511;28;20531;-46
2023/06/10 00:15:31;;;;;;;14.88;4.97;;;15.00;87.80;;;;;;5028251;28;20033;-46
2023/06/10 00:17:59;;;;;;;13.35;6.03;;;15.00;88.10;;;;;;5032770;28;20370;-45
2023/06/10 00:20:24;;;;;;;12.68;5.25;;;14.90;88.30;;;;;;5038071;28;20369;-45
2023/06/10 00:22:52;;;;;;;11.45;5.20;;;14.90;88.30;;;;;;5033418;28;20030;-45
2023/06/10 00:25:18;;;;;;;13.52;5.82;;;14.90;88.30;;;;;;5020789;28;20333;-46
2023/06/10 00:27:48;;;;;;;11.02;5.25;;;14.90;88.30;;;;;;5022555;28;20021;-46
2023/06/10 00:30:15;;;;;;;14.40;6.03;;;14.90;88.50;;;;;;5033429;28;20424;-46
2023/06/10 00:32:45;;;;;;;13.18;6.22;;;14.80;88.70;;;;;;5037727;28;20035;-46
2023/06/10 00:35:14;;;;;;;8.00;5.00;;;14.80;88.60;;;;;;5017915;28;20056;-46
2023/06/10 00:37:40;;;;;;;13.50;5.63;;;14.80;88.70;;;;;;5015852;28;20037;-45
2023/06/10 00:40:11;;;;;;;8.77;5.80;;;14.70;88.70;;;;;;5030557;28;20041;-46
2023/06/10 00:42:37;;;;;;;13.77;5.40;;;14.60;88.70;;;;;;5016150;28;20041;-45
2023/06/10 00:45:06;;;;;;;12.07;5.55;;;14.60;88.70;;;;;;5021077;28;20049;-45
2023/06/10 00:47:31;;;;;;;14.05;5.45;;;14.60;88.60;;;;;;5021365;28;20348;-45
2023/06/10 00:49:58;;;;;;;12.95;6.22;;;14.50;88.70;;;;;;5027560;28;20033;-48
2023/06/10 00:52:28;;;;;;;13.02;5.93;;;14.50;88.50;;;;;;5023731;28;20044;-46
2023/06/10 00:54:55;;;;;;;;;;;14.50;88.50;;;;;;5032969;28;20557;-47
2023/06/10 00:57:22;;;;;;;11.30;5.43;;;14.50;88.60;;;;;;5028999;28;20395;-45
2023/06/10 00:59:51;;;;;;;9.40;5.88;;;14.40;88.70;;;;;;5032361;28;20033;-45
2023/06/10 01:02:18;;;;;;;13.85;5.80;;;14.40;88.90;;;;;;5042689;28;20037;-45
2023/06/10 01:04:48;;;;;;;10.93;4.97;;;14.40;89.00;;;;;;5035750;28;20112;-45
2023/06/10 01:07:32;;;;;;;14.13;6.85;;;14.40;89.10;;;;;;5032978;28;20101;-45
2023/06/10 01:10:12;;;;;;;13.18;5.50;;;14.40;89.10;;;;;;5031095;28;20393;-47
2023/06/10 01:13:02;;;;;;;14.23;5.28;;;14.40;89.30;;;;;;5026914;28;20029;-45
2023/06/10 01:15:31;;;;;;;13.95;7.00;;;14.40;89.50;;;;;;5038859;28;20080;-44
2023/06/10 01:18:09;;;;;;;14.90;7.47;;;14.30;89.50;;;;;;5037489;28;20072;-47
2023/06/10 01:20:39;;;;;;;10.60;6.47;;;14.30;89.60;;;;;;5023247;28;20057;-45
2023/06/10 01:23:07;;;;;;;16.63;6.75;;;14.30;89.60;;;;;;5025284;28;20026;-44
2023/06/10 01:25:51;;;;;;;14.40;6.65;;;14.20;89.70;;;;;;5031237;28;20088;-44
2023/06/10 01:28:27;;;;;;;14.73;7.25;;;14.20;89.80;;;;;;5031902;28;20057;-45
2023/06/10 01:31:26;;;;;;;11.35;5.50;;;14.20;89.90;;;;;;5035547;28;20108;-45
2023/06/10 01:33:54;;;;;;;12.88;6.57;;;14.20;90.10;;;;;;5020902;28;20025;-44
2023/06/10 01:36:23;;;;;;;16.48;7.13;;;14.20;90.20;;;;;;5019208;28;20085;-46
2023/06/10 01:38:55;;;;;;;9.47;5.47;;;14.20;90.20;;;;;;5025285;28;20041;-46
2023/06/10 01:41:22;;;;;;;11.70;6.10;;;14.20;90.10;;;;;;5030188;28;20346;-44
2023/06/10 01:43:49;;;;;;;13.32;6.38;;;14.20;90.20;;;;;;5030681;28;20029;-44
2023/06/10 01:46:19;;;;;;;10.90;6.45;;;14.20;90.30;;;;;;5033097;28;20333;-46
2023/06/10 01:48:46;;;;;;;14.82;8.40;;;14.10;90.40;;;;;;5026266;28;20041;-45
2023/06/10 01:51:13;;;;;;;12.95;6.68;;;14.20;90.60;;;;;;5030084;28;20344;-44
2023/06/10 01:53:40;;;;;;;10.27;6.93;;;14.10;90.70;;;;;;5014430;28;20144;-45
2023/06/10 01:56:07;;;;;;;17.05;6.88;;;14.10;90.90;;;;;;5038772;28;20037;-45
2023/06/10 01:58:34;;;;;;;15.23;7.25;;;14.20;91.00;;;;;;5035456;28;20033;-44
2023/06/10 02:01:00;;;;;;;12.48;7.95;;;14.10;90.80;;;;;;5028575;28;20041;-44
2023/06/10 02:03:27;;;;;;;15.68;7.00;;;14.10;90.80;;;;;;5033490;28;20030;-44
2023/06/10 02:05:54;;;;;;;13.68;7.07;;;14.10;90.70;;;;;;5029748;28;20034;-46
2023/06/10 02:08:21;;;;;;;14.32;7.95;;;14.10;90.80;;;;;;5043855;28;20402;-46
2023/06/10 02:10:48;;;;;;;15.05;7.57;;;14.10;90.80;;;;;;5023485;28;20054;-44
2023/06/10 02:13:15;;;;;;;14.88;7.78;;;14.10;91.00;;;;;;5028434;28;20048;-44
2023/06/10 02:15:45;;;;;;;14.63;7.68;;;14.00;91.00;;;;;;5026916;28;20024;-45
2023/06/10 02:18:12;;;;;;;13.63;8.25;;;14.00;90.80;;;;;;5027680;28;20025;-43
2023/06/10 02:20:41;;;;;;;13.80;8.18;;;14.00;90.90;;;;;;5027943;28;20026;-44
2023/06/10 02:23:07;;;;;;;15.65;10.55;;;13.90;90.90;;;;;;5033422;28;20029;-44
2023/06/10 02:25:33;;;;;;;15.30;9.13;;;14.00;90.90;;;;;;5027064;28;20034;-47
2023/06/10 02:28:03;;;;;;;20.20;8.70;;;13.90;90.80;;;;;;5027020;28;20079;-44
2023/06/10 02:30:30;;;;;;;21.15;10.05;;;14.00;91.00;;;;;;5031773;28;20030;-44
2023/06/10 02:33:01;;;;;;;16.20;9.38;;;13.90;91.00;;;;;;5024471;28;20099;-43
2023/06/10 02:35:27;;;;;;;17.95;9.45;;;13.90;91.10;;;;;;5024003;28;20072;-44
2023/06/10 02:37:54;;;;;;;18.48;9.80;;;13.90;91.20;;;;;;5023032;28;20030;-44
2023/06/10 02:40:22;;;;;;;16.88;8.77;;;13.90;91.30;;;;;;5024775;28;20378;-44
2023/06/10 02:42:48;;;;;;;17.10;8.70;;;13.90;91.20;;;;;;5014523;28;20364;-43
2023/06/10 02:45:16;;;;;;;15.85;8.85;;;13.90;91.30;;;;;;5022596;28;20061;-43
2023/06/10 02:47:43;;;;;;;17.23;11.38;;;13.90;91.30;;;;;;5016844;28;20018;-47
2023/06/10 02:50:10;;;;;;;18.77;8.40;;;13.90;91.20;;;;;;5026714;28;20048;-44
2023/06/10 02:52:35;;;;;;;12.50;7.93;;;13.90;91.20;;;;;;5033496;28;20417;-42
2023/06/10 02:55:03;;;;;;;13.65;7.65;;;13.90;91.20;;;;;;5033720;28;20061;-43
2023/06/10 02:57:30;;;;;;;15.82;7.07;;;13.90;91.10;;;;;;5037157;28;20065;-43
2023/06/10 02:59:58;;;;;;;15.82;9.43;;;13.90;91.10;;;;;;5034878;28;20028;-43
2023/06/10 03:02:28;;;;;;;12.32;7.32;;;13.90;91.10;;;;;;5038402;28;20026;-43
2023/06/10 03:04:55;;;;;;;;;;;13.90;91.30;;;;;;5029490;28;20021;-43
2023/06/10 03:07:22;;;;;;;11.02;7.13;;;13.90;91.10;;;;;;5016502;28;19910;-43
2023/06/10 03:09:49;;;;;;;13.75;7.25;;;13.90;91.10;;;;;;5025493;28;20116;-43
2023/06/10 03:12:16;;;;;;;12.68;6.78;;;13.90;91.00;;;;;;5020828;28;20478;-43
2023/06/10 03:14:42;;;;;;;12.88;7.30;;;13.90;91.00;;;;;;5041283;28;20029;-43
2023/06/10 03:17:09;;;;;;;13.63;6.22;;;13.80;90.90;;;;;;5024870;28;20514;-42
2023/06/10 03:19:39;;;;;;;12.05;6.05;;;13.80;90.90;;;;;;5024156;28;20042;-42
2023/06/10 03:22:10;;;;;;;;;;;13.80;90.90;;;;;;5030454;28;20036;-42
2023/06/10 03:24:36;;;;;;;20.65;6.43;;;13.80;90.80;;;;;;5027816;28;19913;-43
2023/06/10 03:27:05;;;;;;;10.73;6.40;;;13.80;90.80;;;;;;5020469;28;20052;-43
2023/06/10 03:29:32;;;;;;;13.82;6.93;;;13.80;90.80;;;;;;5033664;28;20107;-43
2023/06/10 03:31:57;;;;;;;11.10;5.70;;;13.80;90.70;;;;;;5030921;28;20050;-43
2023/06/10 03:34:23;;;;;;;16.15;7.13;;;13.70;90.60;;;;;;5033297;28;20033;-43
2023/06/10 03:36:50;;;;;;;16.58;6.95;;;13.80;90.70;;;;;;5020460;28;20411;-44
2023/06/10 03:39:17;;;;;;;16.52;6.65;;;13.80;90.50;;;;;;5025068;28;20034;-43
2023/06/10 03:41:47;;;;;;;13.52;7.25;;;13.80;90.70;;;;;;5028005;28;20040;-43
2023/06/10 03:44:14;;;;;;;15.68;7.45;;;13.80;90.50;;;;;;5032673;28;20036;-43
2023/06/10 03:46:41;;;;;;;11.15;6.22;;;13.70;90.30;;;;;;5021832;28;20065;-42
2023/06/10 03:49:10;;;;;;;13.35;6.18;;;13.70;90.30;;;;;;5020093;28;20332;-43
2023/06/10 03:51:37;;;;;;;12.98;6.22;;;13.80;90.20;;;;;;5031406;28;20068;-42
2023/06/10 03:54:04;;;;;;;14.20;6.13;;;13.70;90.30;;;;;;5016817;28;20394;-42
2023/06/10 03:56:33;;;;;;;11.77;6.20;;;13.80;90.10;;;;;;5023137;28;20026;-42
2023/06/10 03:59:01;;;;;;;16.55;6.45;;;13.80;90.20;;;;;;5024502;28;20054;-43
2023/06/10 04:01:28;;;;;;;11.88;5.47;;;13.80;90.20;;;;;;5028762;28;20085;-42
2023/06/10 04:03:56;;;;;;;13.98;5.63;;;13.80;90.10;;;;;;5011845;28;20065;-43
2023/06/10 04:06:25;;;;;;;11.88;5.47;;;13.80;90.00;;;;;;5022264;28;20435;-44
2023/06/10 04:08:53;;;;;;;15.50;6.00;;;13.90;90.00;;;;;;5033827;28;20030;-42
2023/06/10 04:11:20;;;;;;;14.68;6.30;;;13.90;90.00;;;;;;5025868;28;20053;-41
2023/06/10 04:13:49;;;;;;;12.35;5.75;;;13.90;90.10;;;;;;5032686;28;20026;-42
2023/06/10 04:16:15;;;;;;;14.00;6.45;;;13.90;90.00;;;;;;5014984;28;20034;-42
2023/06/10 04:18:43;;;;;;;10.65;7.20;;;13.90;89.90;;;;;;5016649;28;20029;-42
2023/06/10 04:21:09;;;;;;;14.10;5.72;;;13.90;90.00;;;;;;5031257;28;20038;-42
2023/06/10 04:23:37;;;;;;;15.40;7.22;;;13.90;90.00;;;;;;5027960;28;20024;-42
2023/06/10 04:26:05;;;;;;;16.80;7.30;;;14.00;90.10;;;;;;5021645;28;20037;-43
2023/06/10 04:28:32;;;;;;;12.02;6.65;;;14.10;90.00;;;;;;5030734;28;20032;-42
2023/06/10 04:30:58;;;;;;;11.02;6.68;;;14.10;89.90;;;;;;5027536;28;20057;-43
2023/06/10 04:33:25;;;;;;;16.17;6.95;;;14.10;89.80;;;;;;5024323;28;20435;-43
2023/06/10 04:35:57;;;;;;;10.93;6.72;;;14.20;89.60;;;;;;5021154;28;20064;-42
2023/06/10 04:38:24;;;;;;;12.68;6.30;;;14.30;89.60;;;;;;5037153;28;20467;-43
2023/06/10 04:40:51;;;;;;;13.85;7.35;;;14.30;89.60;;;;;;5012985;28;20030;-41
2023/06/10 04:43:18;;;;;;;15.05;6.85;;;14.40;89.50;;;;;;5023445;28;20021;-44
2023/06/10 04:45:45;;;;;;;11.23;5.72;;;14.40;89.10;;;;;;5021992;28;20028;-43
2023/06/10 04:48:12;;;;;;;16.80;6.72;;;14.40;89.50;;;;;;5035983;28;20021;-44
2023/06/10 04:50:40;;;;;;;13.65;6.38;;;14.50;89.40;;;;;;5031822;28;20033;-42
2023/06/10 04:53:07;;;;;;;15.07;7.07;;;14.60;89.30;;;;;;5016721;28;20041;-43
2023/06/10 04:55:34;;;;;;;15.10;6.50;;;14.60;88.90;;;;;;5028781;28;20037;-42
2023/06/10 04:58:00;;;;;;;17.48;6.82;;;14.60;88.60;;;;;;5022534;28;20092;-43
2023/06/10 05:00:26;;;;;;;10.88;6.30;;;14.70;88.60;;;;;;5034452;28;20030;-43
2023/06/10 05:02:53;;;;;;;9.32;6.10;;;14.70;88.30;;;;;;5034256;28;20306;-45
2023/06/10 05:05:19;;;;;;;10.80;5.97;;;14.90;88.30;;;;;;5033119;28;20100;-46
2023/06/10 05:07:47;;;;;;;10.55;6.20;;;14.90;88.20;;;;;;5030264;28;20109;-43
2023/06/10 05:10:14;;;;;;;13.55;6.25;;;15.00;87.80;;;;;;5015044;28;20411;-43
2023/06/10 05:12:41;;;;;;;13.43;5.90;;;15.00;87.80;;;;;;5024372;28;20046;-44
2023/06/10 05:15:08;;;;;;;8.60;6.05;;;15.00;87.50;;;;;;5024951;28;20435;-43
2023/06/10 05:17:35;;;;;;;9.68;6.93;;;15.10;87.40;;;;;;5036085;28;20045;-43
2023/06/10 05:20:03;;;;;;;11.40;6.22;;;15.10;87.00;;;;;;5026902;28;20422;-43
2023/06/10 05:22:30;;;;;;;9.77;5.72;;;15.20;87.20;;;;;;5030638;28;20331;-44
2023/06/10 05:24:56;;;;;;;11.57;6.18;;;15.20;87.10;;;;;;5018928;28;20516;-45
2023/06/10 05:27:24;;;;;;;13.68;5.82;;;15.30;86.70;;;;;;5024088;28;20899;-44
2023/06/10 05:29:51;;;;;;;12.80;7.35;;;15.20;86.60;;;;;;5041956;28;20039;-44
2023/06/10 05:32:18;;;;;;;10.25;6.50;;;15.30;87.20;;;;;;5031774;28;20041;-43
2023/06/10 05:34:48;;;;;;;11.43;6.10;;;15.40;87.50;;;;;;5032940;28;20104;-43
2023/06/10 05:37:15;;;;;;;7.65;5.00;;;15.50;86.90;;;;;;5026093;28;20112;-44
2023/06/10 05:39:44;;;;;;;15.77;7.07;;;15.40;86.50;;;;;;5030705;28;20065;-44
2023/06/10 05:42:11;;;;;;;12.57;5.70;;;15.50;86.30;;;;;;5035708;28;20084;-44
2023/06/10 05:44:38;;;;;;;10.57;5.70;;;15.50;85.70;;;;;;5037285;28;20033;-45
2023/06/10 05:47:06;;;;;;;12.45;5.60;;;15.50;85.70;;;;;;5034625;28;20026;-44
2023/06/10 05:49:32;;;;;;;16.73;7.30;;;15.60;86.10;;;;;;5020990;28;20069;-45
2023/06/10 05:51:59;;;;;;;12.23;5.43;;;15.60;85.70;;;;;;5031831;28;20025;-45
2023/06/10 05:54:26;;;;;;;9.07;6.25;;;15.60;85.20;;;;;;5033052;28;20041;-44
2023/06/10 05:56:53;;;;;;;12.13;6.05;;;15.70;85.60;;;;;;5030541;28;20439;-44
2023/06/10 05:59:22;;;;;;;9.30;5.85;;;15.60;85.00;;;;;;5033067;28;20040;-46
2023/06/10 06:01:52;;;;;;;13.07;6.47;;;15.80;85.80;;;;;;5030793;28;20416;-44
2023/06/10 06:04:19;;;;;;;11.63;6.03;;;15.90;85.10;;;;;;5031751;28;20032;-45
2023/06/10 06:06:48;;;;;;;13.13;5.93;;;16.00;84.90;;;;;;5030634;28;20056;-47
2023/06/10 06:09:16;;;;;;;10.60;6.32;;;15.90;84.50;;;;;;5028439;28;20025;-45
2023/06/10 06:11:43;;;;;;;10.02;6.28;;;16.00;84.60;;;;;;5030796;28;20045;-44
2023/06/10 06:14:09;;;;;;;9.45;5.78;;;15.90;83.80;;;;;;5032823;28;20097;-46
2023/06/10 06:16:36;;;;;;;7.85;6.22;;;15.90;84.20;;;;;;5029566;28;20109;-47
2023/06/10 06:19:03;;;;;;;9.73;5.80;;;16.00;84.00;;;;;;5031791;28;20056;-47
2023/06/10 06:21:29;;;;;;;8.40;5.32;;;16.00;83.70;;;;;;5028551;28;20080;-48
2023/06/10 06:23:57;;;;;;;11.07;5.60;;;16.10;83.50;;;;;;5036182;28;20103;-45
2023/06/10 06:26:25;;;;;;;11.25;5.57;;;16.10;83.30;;;;;;5031643;28;20087;-44
2023/06/10 06:28:51;;;;;;;11.27;5.55;;;16.10;82.60;;;;;;5017650;28;20440;-44
2023/06/10 06:31:17;;;;;;;10.20;4.97;;;16.00;82.90;;;;;;5035444;28;20029;-44
2023/06/10 06:33:44;;;;;;;10.32;5.28;;;16.20;82.90;;;;;;5027091;28;20049;-44
2023/06/10 06:36:13;;;;;;;13.40;6.20;;;16.10;82.50;;;;;;5035505;28;20029;-45
2023/06/10 06:38:39;;;;;;;9.73;4.97;;;16.10;83.20;;;;;;5027022;28;20320;-44
2023/06/10 06:41:06;;;;;;;11.63;5.60;;;16.30;82.50;;;;;;5031054;28;20430;-47
2023/06/10 06:43:32;;;;;;;9.80;5.25;;;16.40;82.80;;;;;;5029017;28;20025;-45
2023/06/10 06:46:01;;;;;;;15.27;5.75;;;16.50;82.80;;;;;;5031439;28;20041;-45
2023/06/10 06:48:28;;;;;;;10.97;5.63;;;16.60;82.10;;;;;;5024502;28;20037;-45
2023/06/10 06:50:58;;;;;;;10.20;5.38;;;16.80;82.20;;;;;;5028242;28;20092;-45
2023/06/10 06:53:27;;;;;;;8.10;4.78;;;16.80;81.20;;;;;;5048802;28;20316;-45
2023/06/10 06:55:54;;;;;;;11.32;4.72;;;16.90;81.00;;;;;;5035912;28;20041;-45
2023/06/10 06:58:23;;;;;;;9.48;5.57;;;16.90;80.90;;;;;;5026736;28;20068;-48
2023/06/10 07:00:50;;;;;;;9.52;5.22;;;16.70;81.20;;;;;;5029534;28;20029;-46
2023/06/10 07:03:20;;;;;;;13.77;6.30;;;16.80;81.00;;;;;;5024209;28;20095;-45
2023/06/10 07:05:47;;;;;;;12.32;5.13;;;16.70;81.00;;;;;;5034279;28;20025;-45
2023/06/10 07:08:14;;;;;;;9.80;5.60;;;16.70;81.50;;;;;;5031537;28;20033;-46
2023/06/10 07:10:41;;;;;;;12.18;5.28;;;16.80;81.20;;;;;;5044033;28;20123;-45
2023/06/10 07:13:07;;;;;;;10.50;5.07;;;16.80;80.60;;;;;;5032236;28;20044;-45
2023/06/10 07:15:33;;;;;;;11.77;5.47;;;16.70;80.70;;;;;;5031203;28;20037;-44
2023/06/10 07:18:01;;;;;;;7.53;4.60;;;16.70;80.60;;;;;;5026661;28;20044;-45
2023/06/10 07:20:28;;;;;;;10.88;5.20;;;16.80;80.60;;;;;;5030175;28;20332;-45
2023/06/10 07:22:55;;;;;;;9.02;4.25;;;16.90;80.90;;;;;;5028971;28;20047;-48
2023/06/10 07:25:24;;;;;;;11.98;5.93;;;17.00;80.80;;;;;;5039332;28;20021;-45
2023/06/10 07:27:50;;;;;;;11.40;5.27;;;17.10;80.70;;;;;;5027387;28;20040;-45
2023/06/10 07:30:17;;;;;;;9.85;4.15;;;17.20;80.20;;;;;;5027574;28;20032;-47
2023/06/10 07:32:43;;;;;;;9.73;4.53;;;17.30;80.00;;;;;;5027601;28;20033;-45
2023/06/10 07:35:13;;;;;;;11.27;5.00;;;17.40;80.10;;;;;;5025500;28;20181;-46
2023/06/10 07:37:40;;;;;;;9.50;4.28;;;17.40;79.90;;;;;;5031743;28;20068;-45
2023/06/10 07:40:07;;;;;;;12.65;4.90;;;17.50;79.40;;;;;;5028228;28;20108;-45
2023/06/10 07:42:35;;;;;;;9.80;4.95;;;17.40;79.20;;;;;;5024417;28;20659;-48
2023/06/10 07:45:03;;;;;;;11.43;5.38;;;17.40;79.20;;;;;;5027163;28;20022;-47
2023/06/10 07:47:30;;;;;;;11.75;5.72;;;17.40;79.10;;;;;;5025402;28;20519;-49
2023/06/10 07:49:59;;;;;;;6.78;4.40;;;17.40;79.30;;;;;;5032093;28;20037;-46
2023/06/10 07:52:26;;;;;;;9.85;4.43;;;17.40;79.80;;;;;;5033529;28;20099;-46
2023/06/10 07:54:53;;;;;;;10.02;4.63;;;17.70;78.90;;;;;;5037864;28;20075;-46
2023/06/10 07:57:22;;;;;;;11.65;5.30;;;17.80;78.10;;;;;;5023938;28;20049;-46
2023/06/10 07:59:49;;;;;;;8.95;4.28;;;17.90;77.40;;;;;;5035580;28;20037;-46
2023/06/10 08:02:20;;;;;;;11.15;4.70;;;17.90;78.40;;;;;;5027983;28;20129;-45
2023/06/10 08:04:48;;;;;;;6.82;4.32;;;18.10;77.50;;;;;;5024851;28;20040;-46
2023/06/10 08:07:15;;;;;;;13.98;4.78;;;18.30;78.00;;;;;;5027901;28;20046;-46
2023/06/10 08:09:42;;;;;;;10.25;4.68;;;18.60;77.00;;;;;;5026233;28;20052;-47
2023/06/10 08:12:10;;;;;;;8.70;4.53;;;18.70;76.10;;;;;;5012449;28;20133;-46
2023/06/10 08:14:36;;;;;;;10.45;4.30;;;18.90;75.40;;;;;;5035485;28;20405;-49
2023/06/10 08:17:05;;;;;;;12.20;5.35;;;19.00;75.50;;;;;;5032680;28;20061;-46
2023/06/10 08:19:31;;;;;;;8.43;4.80;;;19.10;74.80;;;;;;5031416;28;20053;-46
2023/06/10 08:21:58;;;;;;;8.73;4.50;;;19.20;74.70;;;;;;5024131;28;20092;-46
2023/06/10 08:24:25;;;;;;;11.13;4.05;;;19.00;74.50;;;;;;5030570;28;20026;-46
2023/06/10 08:26:50;;;;;;;11.85;4.75;;;19.10;75.30;;;;;;5019864;28;20034;-46
2023/06/10 08:29:17;;;;;;;11.25;5.43;;;19.20;74.00;;;;;;5026952;28;20026;-46
2023/06/10 08:31:44;;;;;;;10.13;5.03;;;19.60;73.20;;;;;;5025530;28;20030;-48
2023/06/10 08:34:11;;;;;;;7.03;3.92;;;20.30;71.50;;;;;;5022638;28;20029;-45
2023/06/10 08:36:38;;;;;;;11.82;4.57;;;20.50;69.90;;;;;;5035964;28;20033;-46
2023/06/10 08:39:08;;;;;;;9.00;4.30;;;20.30;69.70;;;;;;5024893;28;20112;-46
2023/06/10 08:41:43;;;;;;;9.70;3.95;;;20.70;69.60;;;;;;5033275;28;20076;-47
2023/06/10 08:44:26;;;;;;;9.60;4.28;;;21.10;68.70;;;;;;5029979;28;20489;-46
2023/06/10 08:46:58;;;;;;;10.73;4.35;;;21.90;68.80;;;;;;5036286;28;20370;-47
2023/06/10 08:49:26;;;;;;;8.38;4.03;;;22.00;65.00;;;;;;5020147;28;20065;-46
2023/06/10 08:51:58;;;;;;;10.02;4.10;;;22.40;66.20;;;;;;5029085;28;20117;-46
2023/06/10 08:54:28;;;;;;;9.13;4.15;;;22.70;63.90;;;;;;5032486;28;20018;-47
2023/06/10 08:56:59;;;;;;;8.02;3.20;;;23.10;64.90;;;;;;5031737;28;20108;-48
2023/06/10 08:59:26;;;;;;;8.65;3.60;;;23.90;61.60;;;;;;5032134;28;20128;-46
2023/06/10 09:01:54;;;;;;;11.15;4.07;;;23.90;60.30;;;;;;5045038;28;20021;-46
2023/06/10 09:04:22;;;;;;;9.00;3.95;;;23.80;62.40;;;;;;5028856;28;20069;-46
2023/06/10 09:06:50;;;;;;;9.82;3.92;;;23.80;59.90;;;;;;5026789;28;20053;-51
2023/06/10 09:09:22;;;;;;;7.20;3.67;;;23.90;62.00;;;;;;5032294;28;20053;-47
2023/06/10 09:11:52;;;;;;;12.65;4.32;;;24.00;61.20;;;;;;5025427;28;20304;-48
2023/06/10 09:14:17;;;;;;;8.95;3.42;;;23.40;61.40;;;;;;5034791;28;20080;-50
2023/06/10 09:16:46;;;;;;;6.85;2.67;;;23.20;62.60;;;;;;5032200;28;20037;-47
2023/06/10 09:19:15;;;;;;;8.02;3.55;;;23.30;65.10;;;;;;5023637;28;20033;-46
2023/06/10 09:21:44;;;;;;;6.80;3.73;;;23.40;61.40;;;;;;5027608;28;20030;-45
2023/06/10 09:24:11;;;;;;;6.97;3.33;;;23.50;63.30;;;;;;5025038;28;20022;-51
2023/06/10 09:26:43;;;;;;;9.13;3.47;;;23.10;63.60;;;;;;5017465;28;21331;-46
2023/06/10 09:29:12;;;;;;;7.20;3.67;;;23.30;64.40;;;;;;5029136;28;20034;-48
2023/06/10 09:31:39;;;;;;;6.72;3.60;;;23.60;63.70;;;;;;5035621;28;20045;-48
2023/06/10 09:34:08;;;;;;;12.63;3.83;;;23.80;63.30;;;;;;5037330;28;20053;-47
2023/06/10 09:36:36;;;;;;;16.08;4.15;;;24.20;63.80;;;;;;5031520;28;20091;-47
2023/06/10 09:39:03;;;;;;;16.85;4.03;;;24.40;61.00;;;;;;5018139;28;20038;-47
2023/06/10 09:41:43;;;;;;;8.63;4.05;;;24.50;60.70;;;;;;5015312;28;20057;-48
2023/06/10 09:44:17;;;;;;;9.05;3.72;;;24.50;61.30;;;;;;5027789;28;20036;-48
2023/06/10 09:46:49;;;;;;;6.63;3.58;;;24.90;61.00;;;;;;5035268;28;20025;-49
2023/06/10 09:49:21;;;;;;;10.20;3.85;;;24.90;60.00;;;;;;5025631;28;20428;-47
2023/06/10 09:51:54;;;;;;;9.73;4.28;;;24.80;61.10;;;;;;5023050;28;20064;-46
2023/06/10 09:54:22;;;;;;;16.60;5.32;;;24.80;59.10;;;;;;5034260;28;20040;-45
2023/06/10 09:56:52;;;;;;;19.00;4.65;;;24.50;62.20;;;;;;5026064;28;20092;-46
2023/06/10 09:59:32;;;;;;;10.23;3.65;;;24.30;62.00;;;;;;5033492;28;20092;-48
2023/06/10 10:02:00;;;;;;;7.72;4.47;;;24.50;60.30;;;;;;5033844;28;20080;-48
2023/06/10 10:04:29;;;;;;;9.10;3.73;;;24.50;61.00;;;;;;5031673;28;20022;-51
2023/06/10 10:06:56;;;;;;;6.68;3.60;;;24.90;61.00;;;;;;5031160;28;20057;-46
2023/06/10 10:09:23;;;;;;;7.85;4.05;;;24.50;61.70;;;;;;5029966;28;20321;-47
2023/06/10 10:11:51;;;;;;;8.32;4.40;;;24.30;61.50;;;;;;5028560;28;20072;-46
2023/06/10 10:14:21;;;;;;;11.07;4.63;;;24.30;61.00;;;;;;5023233;28;20122;-46
2023/06/10 10:16:50;;;;;;;8.50;4.28;;;24.50;61.90;;;;;;5030291;28;20029;-46
2023/06/10 10:19:30;;;;;;;12.45;4.85;;;24.70;60.40;;;;;;5023171;28;20327;-49
2023/06/10 10:22:12;;;;;;;7.85;3.97;;;24.70;58.60;;;;;;5024267;28;20496;-47
2023/06/10 10:24:46;;;;;;;9.25;4.05;;;25.00;59.70;;;;;;5028155;28;20065;-47
2023/06/10 10:27:18;;;;;;;7.25;3.17;;;24.90;60.60;;;;;;5029039;28;20337;-46
2023/06/10 10:29:48;;;;;;;8.20;4.22;;;24.90;60.60;;;;;;5021853;28;20029;-47
2023/06/10 10:32:16;;;;;;;8.27;3.63;;;25.20;56.60;;;;;;5015649;28;20068;-46
2023/06/10 10:35:06;;;;;;;8.10;4.13;;;24.90;59.00;;;;;;5032699;28;20026;-46
2023/06/10 10:37:36;;;;;;;10.55;3.28;;;24.90;58.00;;;;;;5035440;28;20029;-51
2023/06/10 10:40:03;;;;;;;;;;;24.60;61.20;;;;;;5026960;28;20029;-47
2023/06/10 10:42:31;;;;;;;8.32;3.22;;;24.30;61.10;;;;;;5028098;28;19982;-50
2023/06/10 10:44:58;;;;;;;8.95;2.95;;;24.40;62.60;;;;;;5027576;28;20026;-49
2023/06/10 10:47:30;;;;;;;12.48;4.20;;;24.60;61.20;;;;;;5040140;28;20022;-47
2023/06/10 10:49:59;;;;;;;9.43;4.10;;;24.40;62.40;;;;;;5032663;28;20060;-47
2023/06/10 10:52:27;;;;;;;9.57;3.83;;;24.90;63.30;;;;;;5026550;28;20033;-48
2023/06/10 10:54:55;;;;;;;6.85;3.90;;;24.50;59.90;;;;;;5029252;28;20310;-51
2023/06/10 10:57:39;;;;;;;6.90;3.22;;;24.60;60.40;;;;;;5027170;28;20057;-49
2023/06/10 11:00:10;;;;;;;7.15;3.33;;;24.90;62.50;;;;;;5028017;28;20087;-47
2023/06/10 11:02:48;;;;;;;8.43;3.70;;;25.20;61.50;;;;;;5033201;28;20430;-47
2023/06/10 11:05:18;;;;;;;12.60;3.97;;;25.50;62.10;;;;;;5031059;28;20029;-47
2023/06/10 11:07:59;;;;;;;9.57;2.92;;;25.70;58.70;;;;;;5028112;28;20057;-47
2023/06/10 11:10:50;;;;;;;10.52;3.95;;;25.40;60.40;;;;;;5021688;28;20120;-48
2023/06/10 11:13:19;;;;;;;7.57;3.42;;;25.00;59.30;;;;;;5040756;28;20056;-48
2023/06/10 11:16:04;;;;;;;9.02;3.75;;;25.20;60.50;;;;;;5028508;28;20025;-46
2023/06/10 11:18:39;;;;;;;6.43;3.35;;;24.90;60.40;;;;;;5021466;28;20176;-49
2023/06/10 11:21:06;;;;;;;8.82;3.88;;;25.00;59.20;;;;;;5027880;28;20355;-48
2023/06/10 11:23:50;;;;;;;7.93;3.35;;;24.90;62.70;;;;;;5027291;28;20036;-47
2023/06/10 11:26:31;;;;;;;9.95;3.28;;;24.90;62.10;;;;;;5028774;28;20435;-47
2023/06/10 11:28:59;;;;;;;11.13;4.10;;;24.90;59.60;;;;;;5031067;28;20041;-49
2023/06/10 11:31:26;;;;;;;8.13;3.85;;;24.90;61.00;;;;;;5030807;28;21326;-48
2023/06/10 11:34:11;;;;;;;5.93;3.50;;;24.70;59.60;;;;;;5029842;28;20033;-47
2023/06/10 11:36:42;;;;;;;7.63;3.42;;;24.80;63.00;;;;;;5025591;28;20581;-49
2023/06/10 11:39:08;;;;;;;9.15;3.05;;;24.50;60.50;;;;;;5026567;28;20083;-48
2023/06/10 11:41:37;;;;;;;9.32;3.80;;;24.60;61.70;;;;;;5017871;28;20026;-46
2023/06/10 11:44:08;;;;;;;6.73;3.30;;;24.90;61.70;;;;;;5029945;28;20075;-46
2023/06/10 11:46:36;;;;;;;11.98;4.25;;;24.80;63.00;;;;;;5028444;28;20021;-48
2023/06/10 11:49:05;;;;;;;6.90;3.40;;;24.70;60.10;;;;;;5029396;28;20021;-48
2023/06/10 11:51:38;;;;;;;13.07;4.28;;;24.70;64.90;;;;;;5018831;28;20033;-47
2023/06/10 11:54:08;;;;;;;11.90;4.68;;;24.70;61.10;;;;;;5030934;28;20040;-47
2023/06/10 11:56:34;;;;;;;8.40;3.47;;;24.60;61.00;;;;;;5030088;28;20135;-46
2023/06/10 11:59:12;;;;;;;8.65;3.83;;;24.60;61.70;;;;;;5033617;28;20036;-48
2023/06/10 12:01:44;;;;;;;7.80;3.70;;;24.80;64.20;;;;;;5028128;28;20057;-48
2023/06/10 12:04:15;;;;;;;9.80;3.70;;;24.60;60.40;;;;;;5023784;28;20026;-46
2023/06/10 12:06:52;;;;;;;8.43;3.10;;;24.50;62.10;;;;;;5015329;28;20109;-47
2023/06/10 12:09:23;;;;;;;10.05;3.88;;;24.80;64.20;;;;;;5025467;28;20033;-46
2023/06/10 12:11:57;;;;;;;9.88;3.75;;;24.50;62.50;;;;;;5036233;28;20057;-48
2023/06/10 12:15:00;;;;;;;9.60;3.72;;;24.50;63.30;;;;;;5031715;28;20133;-47
2023/06/10 12:17:37;;;;;;;8.48;4.20;;;24.80;61.90;;;;;;5023512;28;20174;-47
2023/06/10 12:20:07;;;;;;;6.72;3.25;;;24.60;62.20;;;;;;5017457;28;20030;-46
2023/06/10 12:22:53;;;;;;;11.70;4.38;;;24.60;63.70;;;;;;5029855;28;20034;-50
2023/06/10 12:25:26;;;;;;;9.18;4.13;;;24.40;63.40;;;;;;5034815;28;20057;-45
2023/06/10 12:27:54;;;;;;;11.30;4.03;;;24.50;63.50;;;;;;5036509;28;20029;-46
2023/06/10 12:30:23;;;;;;;7.80;3.60;;;24.40;62.00;;;;;;5032472;28;20462;-47
2023/06/10 12:32:52;;;;;;;9.88;3.85;;;24.30;61.80;;;;;;5029772;28;20037;-47
2023/06/10 12:35:21;;;;;;;9.60;3.75;;;24.30;65.30;;;;;;5024088;28;20068;-48
2023/06/10 12:38:06;;;;;;;;;;;24.50;64.70;;;;;;5030341;28;20041;-46
2023/06/10 12:40:51;;;;;;;8.25;2.63;;;24.40;63.50;;;;;;5031769;28;19925;-48
2023/06/10 12:43:25;;;;;;;8.13;3.85;;;24.40;63.80;;;;;;5023915;28;20026;-50
2023/06/10 12:45:52;;;;;;;10.13;3.25;;;24.30;60.70;;;;;;5032867;28;20040;-47
2023/06/10 12:48:23;;;;;;;7.75;3.20;;;24.40;63.30;;;;;;5023167;28;20022;-48
2023/06/10 12:50:55;;;;;;;8.75;3.85;;;24.30;61.20;;;;;;5019681;28;20041;-48